createdAt,value
2018-12-19T00:00:18.635Z,0
2018-12-19T00:01:19.288Z,0
2018-12-19T00:02:19.942Z,0
2018-12-19T00:03:20.593Z,0
2018-12-19T00:04:21.246Z,0
2018-12-19T00:05:21.900Z,0
2018-12-19T00:06:22.552Z,0
2018-12-19T00:07:23.249Z,0
2018-12-19T00:08:23.902Z,0
2018-12-19T00:09:24.558Z,0
2018-12-19T00:10:25.207Z,0
2018-12-19T00:11:25.860Z,0
2018-12-19T00:12:26.514Z,0
2018-12-19T00:13:27.165Z,0
2018-12-19T00:14:27.818Z,0
2018-12-19T00:15:28.470Z,0
2018-12-19T00:16:29.122Z,0
2018-12-19T00:17:29.774Z,0
2018-12-19T00:18:30.426Z,0
2018-12-19T00:19:31.078Z,0
2018-12-19T00:20:31.729Z,0
2018-12-19T00:21:32.384Z,0
2018-12-19T00:22:33.038Z,0
2018-12-19T00:23:33.691Z,0
2018-12-19T00:24:34.342Z,0
2018-12-19T00:25:34.993Z,0
2018-12-19T00:26:35.647Z,0
2018-12-19T00:27:36.300Z,0
2018-12-19T00:28:36.954Z,0
2018-12-19T00:29:37.606Z,0
2018-12-19T00:30:38.258Z,0
2018-12-19T00:31:38.913Z,0
2018-12-19T00:32:39.568Z,0
2018-12-19T00:33:40.264Z,0
2018-12-19T00:34:40.918Z,0
2018-12-19T00:35:41.567Z,0
2018-12-19T00:36:42.219Z,0
2018-12-19T00:37:42.872Z,0
2018-12-19T00:38:43.526Z,0
2018-12-19T00:39:44.178Z,0
2018-12-19T00:40:44.831Z,0
2018-12-19T00:41:45.483Z,0
2018-12-19T00:42:46.136Z,0
2018-12-19T00:43:46.787Z,0
2018-12-19T00:44:47.439Z,0
2018-12-19T00:45:48.091Z,0
2018-12-19T00:46:48.744Z,0
2018-12-19T00:47:49.394Z,0
2018-12-19T00:48:50.048Z,0
2018-12-19T00:49:50.702Z,0
2018-12-19T00:50:51.353Z,0
2018-12-19T00:51:52.006Z,0
2018-12-19T00:52:52.655Z,0
2018-12-19T00:53:53.353Z,0
2018-12-19T00:54:54.005Z,0
2018-12-19T00:55:54.656Z,0
2018-12-19T00:56:55.310Z,0
2018-12-19T00:57:55.965Z,0
2018-12-19T00:58:56.615Z,0
2018-12-19T00:59:57.266Z,0
2018-12-19T01:00:57.917Z,0
2018-12-19T01:01:58.567Z,0
2018-12-19T01:02:59.219Z,0
2018-12-19T01:03:59.869Z,0
2018-12-19T01:05:00.522Z,0
2018-12-19T01:06:01.176Z,0
2018-12-19T01:07:01.828Z,0
2018-12-19T01:08:02.480Z,0
2018-12-19T01:09:03.177Z,0
2018-12-19T01:10:03.830Z,0
2018-12-19T01:11:04.482Z,0
2018-12-19T01:12:05.137Z,0
2018-12-19T01:13:05.787Z,0
2018-12-19T01:14:06.440Z,0
2018-12-19T01:15:07.095Z,0
2018-12-19T01:16:53.520Z,0
2018-12-19T01:17:54.207Z,0
2018-12-19T01:18:54.824Z,0
2018-12-19T01:19:55.476Z,0
2018-12-19T01:20:56.129Z,0
2018-12-19T01:21:56.781Z,0
2018-12-19T01:22:57.431Z,0
2018-12-19T01:23:58.081Z,0
2018-12-19T01:24:58.735Z,0
2018-12-19T01:25:59.385Z,0
2018-12-19T01:27:00.103Z,0
2018-12-19T01:28:00.703Z,0
2018-12-19T01:29:01.396Z,0
2018-12-19T01:30:02.050Z,0
2018-12-19T01:31:02.705Z,0
2018-12-19T01:32:03.352Z,0
2018-12-19T01:33:04.002Z,0
2018-12-19T01:34:04.654Z,0
2018-12-19T01:35:05.310Z,0
2018-12-19T01:36:06.001Z,0
2018-12-19T01:37:06.651Z,0
2018-12-19T01:38:07.304Z,0
2018-12-19T01:39:08.000Z,0
2018-12-19T01:40:08.651Z,0
2018-12-19T01:41:09.303Z,0
2018-12-19T01:42:09.954Z,0
2018-12-19T01:43:10.608Z,0
2018-12-19T01:44:11.256Z,0
2018-12-19T01:45:11.910Z,0
2018-12-19T01:46:12.565Z,0
2018-12-19T01:47:13.263Z,0
2018-12-19T01:48:13.915Z,0
2018-12-19T01:49:14.566Z,0
2018-12-19T01:50:15.217Z,0
2018-12-19T01:51:15.870Z,0
2018-12-19T01:52:16.520Z,0
2018-12-19T01:53:17.173Z,0
2018-12-19T01:54:17.828Z,0
2018-12-19T01:55:18.482Z,0
2018-12-19T01:56:19.131Z,0
2018-12-19T01:57:19.782Z,0
2018-12-19T01:58:20.433Z,0
2018-12-19T01:59:21.086Z,0
2018-12-19T02:00:21.736Z,0
2018-12-19T02:01:22.389Z,0
2018-12-19T02:02:23.042Z,0
2018-12-19T02:03:23.694Z,0
2018-12-19T02:04:24.346Z,0
2018-12-19T02:05:24.996Z,0
2018-12-19T02:06:25.647Z,0
2018-12-19T02:07:26.299Z,0
2018-12-19T02:08:26.953Z,0
2018-12-19T02:09:28.976Z,0
2018-12-19T02:10:29.249Z,0
2018-12-19T02:11:29.902Z,0
2018-12-19T02:12:30.554Z,0
2018-12-19T02:13:31.205Z,0
2018-12-19T02:14:31.857Z,0
2018-12-19T02:15:32.509Z,0
2018-12-19T02:16:33.162Z,0
2018-12-19T02:17:33.814Z,0
2018-12-19T02:18:34.466Z,0
2018-12-19T02:19:35.120Z,0
2018-12-19T02:20:35.774Z,0
2018-12-19T02:21:36.423Z,0
2018-12-19T02:22:37.076Z,0
2018-12-19T02:23:37.728Z,0
2018-12-19T02:24:38.381Z,0
2018-12-19T02:25:39.032Z,0
2018-12-19T02:26:39.686Z,0
2018-12-19T02:27:40.340Z,0
2018-12-19T02:28:40.993Z,0
2018-12-19T02:29:41.644Z,0
2018-12-19T02:30:42.298Z,0
2018-12-19T02:31:42.953Z,0
2018-12-19T02:32:43.650Z,0
2018-12-19T02:33:44.299Z,0
2018-12-19T02:34:44.954Z,0
2018-12-19T02:35:45.606Z,0
2018-12-19T02:36:46.261Z,0
2018-12-19T02:37:46.912Z,0
2018-12-19T02:38:47.563Z,0
2018-12-19T02:39:48.216Z,0
2018-12-19T02:40:48.871Z,0
2018-12-19T02:41:49.521Z,0
2018-12-19T02:42:50.175Z,0
2018-12-19T02:43:50.845Z,0
2018-12-19T02:44:51.482Z,0
2018-12-19T02:45:52.135Z,0
2018-12-19T02:46:52.784Z,0
2018-12-19T02:47:53.438Z,0
2018-12-19T02:48:54.091Z,0
2018-12-19T02:49:54.745Z,0
2018-12-19T02:50:55.441Z,0
2018-12-19T02:51:56.094Z,0
2018-12-19T02:52:56.748Z,0
2018-12-19T02:53:57.400Z,0
2018-12-19T02:54:58.096Z,0
2018-12-19T02:55:58.749Z,0
2018-12-19T02:56:59.403Z,0
2018-12-19T02:58:00.054Z,0
2018-12-19T02:59:00.707Z,0
2018-12-19T03:00:01.412Z,0
2018-12-19T03:01:02.069Z,0
2018-12-19T03:02:02.770Z,0
2018-12-19T03:03:03.422Z,0
2018-12-19T03:04:04.075Z,0
2018-12-19T03:05:04.726Z,0
2018-12-19T03:06:05.378Z,0
2018-12-19T03:07:06.030Z,0
2018-12-19T03:08:06.681Z,0
2018-12-19T03:09:07.336Z,0
2018-12-19T03:10:08.031Z,0
2018-12-19T03:11:08.686Z,0
2018-12-19T03:12:09.340Z,0
2018-12-19T03:13:09.989Z,0
2018-12-19T03:14:10.643Z,0
2018-12-19T03:15:11.294Z,0
2018-12-19T03:16:11.946Z,0
2018-12-19T03:17:12.598Z,0
2018-12-19T03:18:13.252Z,0
2018-12-19T03:19:13.912Z,0
2018-12-19T03:20:14.600Z,0
2018-12-19T03:21:15.252Z,0
2018-12-19T03:22:15.905Z,0
2018-12-19T03:23:16.574Z,0
2018-12-19T03:24:17.212Z,0
2018-12-19T03:25:17.975Z,0
2018-12-19T03:26:18.602Z,0
2018-12-19T03:27:19.300Z,0
2018-12-19T03:28:19.950Z,0
2018-12-19T03:29:20.603Z,0
2018-12-19T03:30:21.255Z,0
2018-12-19T03:31:21.908Z,0
2018-12-19T03:32:22.563Z,0
2018-12-19T03:33:23.217Z,0
2018-12-19T03:34:23.916Z,0
2018-12-19T03:35:24.568Z,0
2018-12-19T03:36:25.222Z,0
2018-12-19T03:37:25.873Z,0
2018-12-19T03:38:26.524Z,0
2018-12-19T03:39:27.176Z,0
2018-12-19T03:40:27.839Z,0
2018-12-19T03:41:28.485Z,0
2018-12-19T03:42:29.137Z,0
2018-12-19T03:43:29.789Z,0
2018-12-19T03:44:30.443Z,0
2018-12-19T03:45:31.096Z,0
2018-12-19T03:46:31.792Z,0
2018-12-19T03:47:32.447Z,0
2018-12-19T03:48:33.098Z,0
2018-12-19T03:49:33.750Z,0
2018-12-19T03:50:34.403Z,0
2018-12-19T03:51:35.054Z,0
2018-12-19T03:52:35.708Z,0
2018-12-19T03:53:36.361Z,0
2018-12-19T03:54:37.019Z,0
2018-12-19T03:55:37.669Z,0
2018-12-19T03:56:38.321Z,0
2018-12-19T03:57:38.973Z,0
2018-12-19T03:58:39.631Z,0
2018-12-19T03:59:41.241Z,0
2018-12-19T04:00:41.924Z,0
2018-12-19T04:01:42.591Z,0
2018-12-19T04:02:43.228Z,0
2018-12-19T04:03:43.888Z,0
2018-12-19T04:04:44.537Z,0
2018-12-19T04:05:45.190Z,0
2018-12-19T04:06:45.841Z,0
2018-12-19T04:07:46.496Z,0
2018-12-19T04:08:47.149Z,0
2018-12-19T04:09:47.807Z,0
2018-12-19T04:10:48.457Z,0
2018-12-19T04:11:49.110Z,0
2018-12-19T04:12:49.761Z,0
2018-12-19T04:13:50.415Z,0
2018-12-19T04:14:51.069Z,0
2018-12-19T04:15:51.722Z,0
2018-12-19T04:16:52.372Z,0
2018-12-19T04:17:53.030Z,0
2018-12-19T04:18:53.682Z,0
2018-12-19T04:19:54.335Z,0
2018-12-19T04:20:54.988Z,0
2018-12-19T04:21:55.640Z,0
2018-12-19T04:22:56.295Z,0
2018-12-19T04:23:56.947Z,0
2018-12-19T04:24:57.608Z,0
2018-12-19T04:25:58.255Z,0
2018-12-19T04:26:58.911Z,0
2018-12-19T04:27:59.606Z,0
2018-12-19T04:29:00.257Z,0
2018-12-19T04:30:00.912Z,0
2018-12-19T04:31:01.565Z,0
2018-12-19T04:32:02.219Z,0
2018-12-19T04:33:02.917Z,0
2018-12-19T04:34:03.573Z,0
2018-12-19T04:35:04.228Z,0
2018-12-19T04:36:04.883Z,0
2018-12-19T04:37:05.576Z,0
2018-12-19T04:38:06.233Z,0
2018-12-19T04:39:06.883Z,0
2018-12-19T04:40:07.538Z,0
2018-12-19T04:41:08.190Z,0
2018-12-19T04:42:08.847Z,0
2018-12-19T04:43:09.545Z,0
2018-12-19T04:44:10.196Z,0
2018-12-19T04:45:10.849Z,0
2018-12-19T04:46:11.510Z,0
2018-12-19T04:47:12.154Z,0
2018-12-19T04:48:12.858Z,0
2018-12-19T04:49:13.511Z,0
2018-12-19T04:50:14.208Z,0
2018-12-19T04:51:14.861Z,0
2018-12-19T04:52:15.512Z,0
2018-12-19T04:53:16.166Z,0
2018-12-19T04:54:16.819Z,0
2018-12-19T04:55:17.473Z,0
2018-12-19T04:56:18.125Z,0
2018-12-19T04:57:18.781Z,0
2018-12-19T04:58:19.479Z,0
2018-12-19T04:59:20.176Z,0
2018-12-19T05:00:20.873Z,0
2018-12-19T05:01:21.527Z,0
2018-12-19T05:02:22.179Z,0
2018-12-19T05:03:22.834Z,0
2018-12-19T05:04:23.485Z,0
2018-12-19T05:05:24.139Z,0
2018-12-19T05:06:24.796Z,0
2018-12-19T05:07:25.453Z,0
2018-12-19T05:08:26.174Z,0
2018-12-19T05:09:26.785Z,0
2018-12-19T05:10:27.440Z,0
2018-12-19T05:11:28.095Z,0
2018-12-19T05:12:28.749Z,0
2018-12-19T05:13:29.403Z,0
2018-12-19T05:14:30.054Z,0
2018-12-19T05:15:30.752Z,0
2018-12-19T05:16:31.405Z,0
2018-12-19T05:17:32.056Z,0
2018-12-19T05:18:32.711Z,0
2018-12-19T05:19:33.368Z,0
2018-12-19T05:20:34.020Z,0
2018-12-19T05:21:34.672Z,0
2018-12-19T05:22:35.326Z,0
2018-12-19T05:23:35.980Z,0
2018-12-19T05:24:36.632Z,0
2018-12-19T05:25:37.285Z,0
2018-12-19T05:26:37.940Z,0
2018-12-19T05:27:38.592Z,0
2018-12-19T05:28:39.290Z,0
2018-12-19T05:29:39.942Z,0
2018-12-19T05:30:40.595Z,0
2018-12-19T05:31:41.250Z,0
2018-12-19T05:32:41.904Z,0
2018-12-19T05:33:42.559Z,0
2018-12-19T05:34:43.214Z,0
2018-12-19T05:35:43.868Z,0
2018-12-19T05:36:44.521Z,0
2018-12-19T05:37:45.219Z,0
2018-12-19T05:38:45.874Z,0
2018-12-19T05:39:46.526Z,0
2018-12-19T05:40:47.180Z,0
2018-12-19T05:41:47.839Z,0
2018-12-19T05:42:48.489Z,0
2018-12-19T05:43:49.144Z,0
2018-12-19T05:44:49.795Z,0
2018-12-19T05:45:50.449Z,0
2018-12-19T05:46:51.102Z,0
2018-12-19T05:47:51.756Z,0
2018-12-19T05:48:52.410Z,0
2018-12-19T05:49:53.064Z,0
2018-12-19T05:50:53.716Z,0
2018-12-19T05:51:54.370Z,0
2018-12-19T05:52:55.022Z,0
2018-12-19T05:53:55.677Z,0
2018-12-19T05:54:56.330Z,0
2018-12-19T05:55:56.989Z,0
2018-12-19T05:56:57.644Z,0
2018-12-19T05:57:58.292Z,0
2018-12-19T05:58:58.945Z,0
2018-12-19T05:59:59.599Z,0
2018-12-19T06:01:00.253Z,0
2018-12-19T06:02:00.907Z,0
2018-12-19T06:03:01.560Z,0
2018-12-19T06:04:02.218Z,0
2018-12-19T06:05:02.915Z,0
2018-12-19T06:06:03.569Z,0
2018-12-19T06:07:04.224Z,0
2018-12-19T06:08:04.874Z,0
2018-12-19T06:09:05.526Z,0
2018-12-19T06:10:06.180Z,0
2018-12-19T06:11:06.834Z,0
2018-12-19T06:12:07.533Z,0
2018-12-19T06:13:08.188Z,0
2018-12-19T06:14:08.841Z,0
2018-12-19T06:15:09.494Z,0
2018-12-19T06:16:10.148Z,0
2018-12-19T06:17:10.803Z,0
2018-12-19T06:18:11.456Z,0
2018-12-19T06:19:12.111Z,0
2018-12-19T06:20:12.765Z,0
2018-12-19T06:21:13.420Z,0
2018-12-19T06:22:14.072Z,0
2018-12-19T06:23:14.725Z,0
2018-12-19T06:24:15.378Z,0
2018-12-19T06:25:16.031Z,0
2018-12-19T06:26:16.684Z,0
2018-12-19T06:27:17.337Z,0
2018-12-19T06:28:18.038Z,0
2018-12-19T06:29:18.691Z,0
2018-12-19T06:30:19.344Z,0
2018-12-19T06:31:19.998Z,0
2018-12-19T06:32:20.652Z,0
2018-12-19T06:33:21.307Z,0
2018-12-19T06:34:22.003Z,0
2018-12-19T06:35:22.658Z,0
2018-12-19T06:36:23.314Z,0
2018-12-19T06:37:23.968Z,0
2018-12-19T06:38:24.619Z,0
2018-12-19T06:39:25.274Z,0
2018-12-19T06:40:25.929Z,0
2018-12-19T06:41:26.581Z,0
2018-12-19T06:42:27.234Z,0
2018-12-19T06:43:27.889Z,0
2018-12-19T06:44:28.544Z,0
2018-12-19T06:45:29.195Z,0
2018-12-19T06:46:29.850Z,0
2018-12-19T06:47:30.535Z,0
2018-12-19T06:48:31.154Z,0
2018-12-19T06:49:31.809Z,0
2018-12-19T06:50:32.464Z,0
2018-12-19T06:51:33.118Z,0
2018-12-19T06:52:33.771Z,0
2018-12-19T06:53:34.426Z,0
2018-12-19T06:54:35.080Z,4
2018-12-19T06:55:35.733Z,4
2018-12-19T06:56:36.430Z,0
2018-12-19T06:57:37.087Z,4
2018-12-19T06:58:37.742Z,4
2018-12-19T06:59:38.398Z,4
2018-12-19T07:00:39.052Z,8
2018-12-19T07:01:39.705Z,4
2018-12-19T07:02:40.358Z,8
2018-12-19T07:03:41.011Z,8
2018-12-19T07:04:41.665Z,12
2018-12-19T07:05:42.330Z,12
2018-12-19T07:06:42.977Z,12
2018-12-19T07:07:43.633Z,12
2018-12-19T07:08:44.286Z,16
2018-12-19T07:09:44.939Z,16
2018-12-19T07:10:45.594Z,20
2018-12-19T07:11:46.250Z,20
2018-12-19T07:12:46.948Z,24
2018-12-19T07:13:47.601Z,20
2018-12-19T07:14:48.257Z,24
2018-12-19T07:15:48.914Z,28
2018-12-19T07:16:49.570Z,24
2018-12-19T07:17:50.242Z,28
2018-12-19T07:18:50.922Z,28
2018-12-19T07:19:51.577Z,32
2018-12-19T07:20:52.232Z,36
2018-12-19T07:21:52.889Z,36
2018-12-19T07:22:53.541Z,40
2018-12-19T07:23:54.197Z,44
2018-12-19T07:24:54.853Z,48
2018-12-19T07:25:55.508Z,48
2018-12-19T07:26:56.163Z,52
2018-12-19T07:27:56.817Z,60
2018-12-19T07:28:57.470Z,64
2018-12-19T07:29:58.126Z,64
2018-12-19T07:30:58.780Z,68
2018-12-19T07:31:59.435Z,72
2018-12-19T07:33:00.090Z,76
2018-12-19T07:34:00.746Z,80
2018-12-19T07:35:01.409Z,80
2018-12-19T07:36:02.105Z,84
2018-12-19T07:37:02.761Z,88
2018-12-19T07:38:03.416Z,92
2018-12-19T07:39:04.071Z,100
2018-12-19T07:40:04.726Z,104
2018-12-19T07:41:05.381Z,108
2018-12-19T07:42:06.037Z,116
2018-12-19T07:43:06.692Z,116
2018-12-19T07:44:07.349Z,116
2018-12-19T07:45:08.005Z,116
2018-12-19T07:46:08.663Z,116
2018-12-19T07:47:09.364Z,120
2018-12-19T07:48:10.022Z,120
2018-12-19T07:49:10.680Z,124
2018-12-19T07:50:11.333Z,132
2018-12-19T07:51:12.019Z,140
2018-12-19T07:52:12.680Z,148
2018-12-19T07:53:13.336Z,156
2018-12-19T07:54:13.990Z,160
2018-12-19T07:55:14.646Z,160
2018-12-19T07:56:15.302Z,164
2018-12-19T07:57:15.960Z,168
2018-12-19T07:58:16.617Z,168
2018-12-19T07:59:17.319Z,184
2018-12-19T08:00:17.977Z,204
2018-12-19T08:01:18.632Z,224
2018-12-19T08:02:19.293Z,240
2018-12-19T08:03:19.942Z,256
2018-12-19T08:04:20.598Z,276
2018-12-19T08:05:26.147Z,288
2018-12-19T08:06:22.900Z,284
2018-12-19T08:07:23.555Z,280
2018-12-19T08:08:24.214Z,268
2018-12-19T08:09:24.888Z,264
2018-12-19T08:10:25.566Z,268
2018-12-19T08:11:26.221Z,272
2018-12-19T08:12:27.081Z,276
2018-12-19T08:13:27.716Z,288
2018-12-19T08:14:28.380Z,296
2018-12-19T08:15:29.074Z,304
2018-12-19T08:16:29.688Z,312
2018-12-19T08:17:30.347Z,312
2018-12-19T08:18:31.004Z,312
2018-12-19T08:19:31.662Z,304
2018-12-19T08:20:32.321Z,300
2018-12-19T08:21:32.978Z,296
2018-12-19T08:22:33.633Z,304
2018-12-19T08:23:34.291Z,308
2018-12-19T08:24:34.947Z,324
2018-12-19T08:25:35.604Z,344
2018-12-19T08:26:36.260Z,356
2018-12-19T08:27:36.919Z,368
2018-12-19T08:28:37.575Z,380
2018-12-19T08:29:38.231Z,380
2018-12-19T08:30:38.887Z,376
2018-12-19T08:31:39.545Z,376
2018-12-19T08:32:40.204Z,380
2018-12-19T08:33:40.862Z,380
2018-12-19T08:34:41.567Z,392
2018-12-19T08:35:42.223Z,400
2018-12-19T08:36:42.881Z,408
2018-12-19T08:37:43.540Z,432
2018-12-19T08:38:44.198Z,448
2018-12-19T08:39:44.857Z,460
2018-12-19T08:40:45.516Z,468
2018-12-19T08:41:46.174Z,468
2018-12-19T08:42:46.834Z,464
2018-12-19T08:43:47.488Z,456
2018-12-19T08:44:48.146Z,452
2018-12-19T08:45:48.801Z,460
2018-12-19T08:46:49.457Z,468
2018-12-19T08:47:50.115Z,484
2018-12-19T08:48:50.771Z,480
2018-12-19T08:49:51.479Z,472
2018-12-19T08:50:52.137Z,484
2018-12-19T08:51:52.797Z,496
2018-12-19T08:52:53.497Z,512
2018-12-19T08:53:54.199Z,524
2018-12-19T08:54:54.855Z,536
2018-12-19T08:55:55.513Z,540
2018-12-19T08:56:56.170Z,536
2018-12-19T08:57:56.827Z,536
2018-12-19T08:58:57.485Z,544
2018-12-19T08:59:58.143Z,564
2018-12-19T09:00:58.800Z,580
2018-12-19T09:01:59.459Z,592
2018-12-19T09:03:00.120Z,596
2018-12-19T09:04:00.775Z,592
2018-12-19T09:05:01.434Z,580
2018-12-19T09:06:02.092Z,572
2018-12-19T09:07:02.747Z,560
2018-12-19T09:08:03.405Z,560
2018-12-19T09:09:04.061Z,560
2018-12-19T09:10:04.717Z,556
2018-12-19T09:11:06.067Z,552
2018-12-19T09:12:06.756Z,552
2018-12-19T09:13:07.413Z,552
2018-12-19T09:14:08.113Z,564
2018-12-19T09:15:08.770Z,560
2018-12-19T09:16:09.429Z,552
2018-12-19T09:17:10.085Z,536
2018-12-19T09:18:10.744Z,532
2018-12-19T09:19:11.401Z,540
2018-12-19T09:20:12.060Z,556
2018-12-19T09:21:12.718Z,588
2018-12-19T09:22:13.375Z,616
2018-12-19T09:23:14.030Z,632
2018-12-19T09:24:14.687Z,628
2018-12-19T09:25:15.343Z,620
2018-12-19T09:26:15.999Z,620
2018-12-19T09:27:16.657Z,632
2018-12-19T09:28:17.315Z,640
2018-12-19T09:29:17.973Z,640
2018-12-19T09:30:18.629Z,632
2018-12-19T09:31:19.287Z,632
2018-12-19T09:32:19.946Z,624
2018-12-19T09:33:27.159Z,620
2018-12-19T09:34:22.296Z,612
2018-12-19T09:35:22.952Z,620
2018-12-19T09:36:23.615Z,644
2018-12-19T09:37:24.267Z,692
2018-12-19T09:38:24.925Z,716
2018-12-19T09:39:25.585Z,732
2018-12-19T09:40:26.245Z,744
2018-12-19T09:41:26.904Z,744
2018-12-19T09:42:27.606Z,764
2018-12-19T09:43:28.266Z,780
2018-12-19T09:44:28.924Z,800
2018-12-19T09:45:29.582Z,820
2018-12-19T09:46:30.239Z,848
2018-12-19T09:47:30.894Z,872
2018-12-19T09:48:31.553Z,820
2018-12-19T09:49:32.254Z,792
2018-12-19T09:50:32.955Z,744
2018-12-19T09:51:33.612Z,704
2018-12-19T09:52:34.269Z,684
2018-12-19T09:53:34.929Z,676
2018-12-19T09:54:35.630Z,664
2018-12-19T09:55:36.289Z,644
2018-12-19T09:56:36.947Z,624
2018-12-19T09:57:37.599Z,624
2018-12-19T09:58:38.256Z,640
2018-12-19T09:59:38.915Z,668
2018-12-19T10:00:39.573Z,700
2018-12-19T10:01:40.232Z,736
2018-12-19T10:02:40.891Z,772
2018-12-19T10:03:41.548Z,800
2018-12-19T10:04:42.209Z,832
2018-12-19T10:05:42.865Z,868
2018-12-19T10:06:43.523Z,908
2018-12-19T10:07:44.177Z,952
2018-12-19T10:08:44.835Z,1020
2018-12-19T10:09:45.496Z,1108
2018-12-19T10:10:46.150Z,1172
2018-12-19T10:11:46.810Z,1204
2018-12-19T10:12:47.468Z,1224
2018-12-19T10:13:48.132Z,1252
2018-12-19T10:14:48.785Z,1276
2018-12-19T10:15:49.442Z,1288
2018-12-19T10:16:50.100Z,1264
2018-12-19T10:17:50.755Z,1236
2018-12-19T10:18:51.414Z,1220
2018-12-19T10:19:52.073Z,1232
2018-12-19T10:20:52.731Z,1256
2018-12-19T10:21:53.391Z,1300
2018-12-19T10:22:54.058Z,1364
2018-12-19T10:23:54.755Z,1412
2018-12-19T10:24:55.415Z,1408
2018-12-19T10:25:56.075Z,1372
2018-12-19T10:26:56.735Z,1332
2018-12-19T10:27:57.394Z,1304
2018-12-19T10:28:58.055Z,1316
2018-12-19T10:29:58.715Z,1392
2018-12-19T10:30:59.429Z,1492
2018-12-19T10:32:00.039Z,1576
2018-12-19T10:33:00.697Z,1636
2018-12-19T10:34:01.360Z,1672
2018-12-19T10:35:02.016Z,1704
2018-12-19T10:36:02.697Z,1716
2018-12-19T10:37:03.338Z,1704
2018-12-19T10:38:03.997Z,1668
2018-12-19T10:39:04.656Z,1632
2018-12-19T10:40:05.315Z,1596
2018-12-19T10:41:05.976Z,1552
2018-12-19T10:42:06.647Z,1496
2018-12-19T10:43:07.340Z,1440
2018-12-19T10:44:07.998Z,1420
2018-12-19T10:45:08.657Z,1432
2018-12-19T10:46:09.318Z,1428
2018-12-19T10:47:09.977Z,1412
2018-12-19T10:48:10.637Z,1392
2018-12-19T10:49:11.306Z,1376
2018-12-19T10:50:12.001Z,1376
2018-12-19T10:51:12.663Z,1392
2018-12-19T10:52:13.320Z,1396
2018-12-19T10:53:13.981Z,1400
2018-12-19T10:54:14.640Z,1404
2018-12-19T10:55:15.300Z,1408
2018-12-19T10:56:15.958Z,1404
2018-12-19T10:57:16.623Z,1416
2018-12-19T10:58:17.284Z,1456
2018-12-19T10:59:17.947Z,1520
2018-12-19T11:00:18.610Z,1592
2018-12-19T11:01:19.337Z,1668
2018-12-19T11:02:20.014Z,1712
2018-12-19T11:03:20.674Z,1716
2018-12-19T11:04:21.332Z,1712
2018-12-19T11:05:21.992Z,1732
2018-12-19T11:06:22.652Z,1744
2018-12-19T11:07:23.314Z,1724
2018-12-19T11:08:23.971Z,1668
2018-12-19T11:09:24.633Z,1612
2018-12-19T11:10:25.335Z,1572
2018-12-19T11:11:32.053Z,1560
2018-12-19T11:12:27.644Z,1604
2018-12-19T11:13:28.306Z,1672
2018-12-19T11:14:28.961Z,1748
2018-12-19T11:15:29.619Z,1804
2018-12-19T11:16:30.277Z,1824
2018-12-19T11:17:30.941Z,1824
2018-12-19T11:18:31.648Z,1800
2018-12-19T11:19:32.306Z,1760
2018-12-19T11:20:32.965Z,1708
2018-12-19T11:21:33.625Z,1636
2018-12-19T11:22:34.288Z,1584
2018-12-19T11:23:34.944Z,1532
2018-12-19T11:24:35.610Z,1480
2018-12-19T11:25:36.311Z,1456
2018-12-19T11:26:36.968Z,1424
2018-12-19T11:27:37.629Z,1364
2018-12-19T11:28:38.333Z,1300
2018-12-19T11:29:38.991Z,1248
2018-12-19T11:30:39.652Z,1196
2018-12-19T11:31:40.313Z,1160
2018-12-19T11:32:41.017Z,1156
2018-12-19T11:33:41.677Z,1176
2018-12-19T11:34:42.339Z,1208
2018-12-19T11:35:42.997Z,1248
2018-12-19T11:36:43.672Z,1260
2018-12-19T11:37:44.361Z,1236
2018-12-19T11:38:45.022Z,1188
2018-12-19T11:39:45.681Z,1164
2018-12-19T11:40:46.342Z,1156
2018-12-19T11:41:47.004Z,1172
2018-12-19T11:42:47.708Z,1184
2018-12-19T11:43:48.368Z,1216
2018-12-19T11:44:49.029Z,1232
2018-12-19T11:45:49.689Z,1212
2018-12-19T11:46:50.350Z,1196
2018-12-19T11:47:51.011Z,1212
2018-12-19T11:48:51.713Z,1256
2018-12-19T11:49:52.478Z,1324
2018-12-19T11:50:53.081Z,1424
2018-12-19T11:51:53.770Z,1544
2018-12-19T11:52:54.402Z,1644
2018-12-19T11:53:55.059Z,1684
2018-12-19T11:54:55.719Z,1668
2018-12-19T11:55:56.378Z,1632
2018-12-19T11:56:57.038Z,1596
2018-12-19T11:57:57.700Z,1584
2018-12-19T11:58:58.361Z,1556
2018-12-19T11:59:59.020Z,1508
2018-12-19T12:00:59.680Z,1432
2018-12-19T12:02:00.341Z,1376
2018-12-19T12:03:01.001Z,1388
2018-12-19T12:04:01.670Z,1456
2018-12-19T12:05:02.324Z,1528
2018-12-19T12:06:02.985Z,1580
2018-12-19T12:07:03.646Z,1604
2018-12-19T12:08:04.306Z,1608
2018-12-19T12:09:05.009Z,1608
2018-12-19T12:10:05.669Z,1620
2018-12-19T12:11:06.330Z,1640
2018-12-19T12:12:06.989Z,1676
2018-12-19T12:13:07.650Z,1688
2018-12-19T12:14:08.312Z,1668
2018-12-19T12:15:09.017Z,1640
2018-12-19T12:16:09.676Z,1640
2018-12-19T12:17:10.339Z,1688
2018-12-19T12:18:11.001Z,1760
2018-12-19T12:19:11.704Z,1816
2018-12-19T12:20:12.363Z,1828
2018-12-19T12:21:13.066Z,1808
2018-12-19T12:22:13.731Z,1712
2018-12-19T12:23:14.433Z,1576
2018-12-19T12:24:15.151Z,1444
2018-12-19T12:25:15.757Z,1320
2018-12-19T12:26:16.415Z,1264
2018-12-19T12:27:17.073Z,1260
2018-12-19T12:28:17.734Z,1276
2018-12-19T12:29:18.395Z,1300
2018-12-19T12:30:19.054Z,1316
2018-12-19T12:31:19.714Z,1324
2018-12-19T12:32:20.373Z,1284
2018-12-19T12:33:21.101Z,1268
2018-12-19T12:34:21.732Z,1288
2018-12-19T12:35:22.390Z,1336
2018-12-19T12:36:23.048Z,1348
2018-12-19T12:37:23.707Z,1308
2018-12-19T12:38:24.368Z,1248
2018-12-19T12:39:25.022Z,1140
2018-12-19T12:40:25.682Z,1032
2018-12-19T12:41:26.341Z,972
2018-12-19T12:42:26.998Z,964
2018-12-19T12:43:27.658Z,940
2018-12-19T12:44:28.315Z,892
2018-12-19T12:45:28.971Z,912
2018-12-19T12:46:29.629Z,988
2018-12-19T12:47:30.288Z,1000
2018-12-19T12:48:30.948Z,904
2018-12-19T12:49:31.607Z,892
2018-12-19T12:50:32.267Z,912
2018-12-19T12:51:32.925Z,892
2018-12-19T12:52:33.584Z,864
2018-12-19T12:53:34.286Z,896
2018-12-19T12:54:34.946Z,936
2018-12-19T12:55:35.605Z,948
2018-12-19T12:56:36.258Z,948
2018-12-19T12:57:36.916Z,920
2018-12-19T12:58:37.575Z,784
2018-12-19T12:59:38.232Z,680
2018-12-19T13:00:38.891Z,652
2018-12-19T13:01:39.549Z,656
2018-12-19T13:02:40.255Z,636
2018-12-19T13:03:40.910Z,724
2018-12-19T13:04:41.568Z,852
2018-12-19T13:05:42.229Z,868
2018-12-19T13:06:42.934Z,964
2018-12-19T13:07:43.588Z,1072
2018-12-19T13:08:44.249Z,1076
2018-12-19T13:09:44.910Z,1024
2018-12-19T13:10:45.574Z,936
2018-12-19T13:11:46.231Z,888
2018-12-19T13:12:46.889Z,964
2018-12-19T13:13:47.551Z,1020
2018-12-19T13:14:48.210Z,1108
2018-12-19T13:15:48.871Z,1236
2018-12-19T13:16:49.532Z,1276
2018-12-19T13:17:50.192Z,1296
2018-12-19T13:18:50.852Z,1312
2018-12-19T13:19:51.513Z,1332
2018-12-19T13:20:52.174Z,1340
2018-12-19T13:21:52.833Z,1332
2018-12-19T13:22:53.493Z,1296
2018-12-19T13:23:54.155Z,1216
2018-12-19T13:24:54.814Z,1116
2018-12-19T13:25:55.477Z,1072
2018-12-19T13:26:56.133Z,996
2018-12-19T13:27:56.792Z,952
2018-12-19T13:28:57.448Z,936
2018-12-19T13:29:58.106Z,908
2018-12-19T13:30:58.763Z,876
2018-12-19T13:31:59.420Z,828
2018-12-19T13:33:00.129Z,776
2018-12-19T13:34:00.787Z,708
2018-12-19T13:35:01.445Z,716
2018-12-19T13:36:02.103Z,672
2018-12-19T13:37:02.763Z,608
2018-12-19T13:38:03.421Z,600
2018-12-19T13:39:04.083Z,616
2018-12-19T13:40:04.736Z,620
2018-12-19T13:41:05.395Z,596
2018-12-19T13:42:06.058Z,584
2018-12-19T13:43:06.754Z,572
2018-12-19T13:44:07.411Z,512
2018-12-19T13:45:08.070Z,464
2018-12-19T13:46:08.730Z,468
2018-12-19T13:47:09.391Z,460
2018-12-19T13:48:10.051Z,440
2018-12-19T13:49:10.709Z,376
2018-12-19T13:50:11.369Z,376
2018-12-19T13:51:12.027Z,384
2018-12-19T13:52:12.684Z,404
2018-12-19T13:53:13.343Z,424
2018-12-19T13:54:13.999Z,400
2018-12-19T13:55:14.718Z,424
2018-12-19T13:56:15.368Z,432
2018-12-19T13:57:16.025Z,416
2018-12-19T13:58:16.682Z,412
2018-12-19T13:59:17.339Z,400
2018-12-19T14:00:17.998Z,388
2018-12-19T14:01:18.656Z,384
2018-12-19T14:02:19.315Z,384
2018-12-19T14:03:20.020Z,408
2018-12-19T14:04:20.677Z,444
2018-12-19T14:05:21.335Z,480
2018-12-19T14:06:21.992Z,520
2018-12-19T14:07:22.701Z,556
2018-12-19T14:08:23.356Z,616
2018-12-19T14:09:24.014Z,676
2018-12-19T14:10:24.718Z,720
2018-12-19T14:11:25.376Z,768
2018-12-19T14:12:26.085Z,804
2018-12-19T14:13:26.743Z,820
2018-12-19T14:14:27.400Z,852
2018-12-19T14:15:28.059Z,912
2018-12-19T14:16:28.717Z,972
2018-12-19T14:17:29.377Z,1004
2018-12-19T14:18:30.037Z,1020
2018-12-19T14:19:30.699Z,1032
2018-12-19T14:20:31.357Z,1060